<?xml version="1.0" encoding="UTF-8" standalone="no" ?>
<gpx xmlns="http://www.topografix.com/GPX/1/1" xmlns:xsi="http://www.w3.org/2001/XMLSchema-instance" xsi:schemaLocation="http://www.topografix.com/GPX/1/1 http://www.topografix.com/GPX/1/1/gpx.xsd" version="1.1" creator="VisuGPX - https://www.visugpx.com">
  <metadata>
    <name>05.Pic des 3 seigneurs</name>
    <desc><![CDATA[05.Pic des 3 seigneurs]]></desc>
  </metadata>
  <wpt lat="42.80644" lon="1.41149">
    <ele>1518</ele>
    <name><![CDATA[Parking Port-de-Lers]]></name>
  </wpt>
  <wpt lat="42.80663" lon="1.4211">
    <ele>1420</ele>
    <name><![CDATA[Départ du sentier]]></name>
  </wpt>
  <wpt lat="42.81164" lon="1.43342">
    <ele>1423</ele>
    <name><![CDATA[Pont de Ganioule]]></name>
  </wpt>
  <wpt lat="42.81796" lon="1.4381">
    <ele>1710</ele>
    <name><![CDATA[Orri des Trois Seigneurs]]></name>
  </wpt>
  <wpt lat="42.81954" lon="1.43711">
    <ele>1730</ele>
    <name><![CDATA[Étang d'Arbu]]></name>
  </wpt>
  <wpt lat="42.82952" lon="1.43539">
    <ele>2072</ele>
    <name><![CDATA[Embranchement, à droite ]]></name>
  </wpt>
  <wpt lat="42.83055" lon="1.44016">
    <ele>2167</ele>
    <name><![CDATA[Pic des Trois Seigneurs]]></name>
  </wpt>
  <wpt lat="42.82605" lon="1.42505">
    <ele>2013</ele>
    <name><![CDATA[Pic de Barrès]]></name>
  </wpt>
  <wpt lat="42.82184" lon="1.41874">
    <ele>1965</ele>
    <name><![CDATA[Pic de Fontanette]]></name>
  </wpt>
  <wpt lat="42.81652" lon="1.41591">
    <ele>1924</ele>
    <name><![CDATA[Descente en direction du Parking]]></name>
  </wpt>
  <wpt lat="42.80647" lon="1.41149">
    <ele>1518</ele>
    <name><![CDATA[Parking du Port-De-Lers]]></name>
  </wpt>
  <trk>
    <name><![CDATA[Boucle du Pic des Trois Seigneurs]]></name>
    <trkseg>
      <trkpt lat="42.80644" lon="1.41149">
        <ele>1518</ele>
        <time>2021-10-10T19:06:02+02:00</time>
      </trkpt>
      <trkpt lat="42.80628" lon="1.41235">
        <ele>1516</ele>
        <time>2021-10-10T19:06:07+02:00</time>
      </trkpt>
      <trkpt lat="42.80657" lon="1.41385">
        <ele>1508</ele>
        <time>2021-10-10T19:06:12+02:00</time>
      </trkpt>
      <trkpt lat="42.80679" lon="1.41471">
        <ele>1507</ele>
        <time>2021-10-10T19:06:17+02:00</time>
      </trkpt>
      <trkpt lat="42.80707" lon="1.41574">
        <ele>1504</ele>
        <time>2021-10-10T19:06:22+02:00</time>
      </trkpt>
      <trkpt lat="42.80717" lon="1.41664">
        <ele>1496</ele>
        <time>2021-10-10T19:06:27+02:00</time>
      </trkpt>
      <trkpt lat="42.80748" lon="1.41733">
        <ele>1501</ele>
        <time>2021-10-10T19:06:32+02:00</time>
      </trkpt>
      <trkpt lat="42.80739" lon="1.42003">
        <ele>1483</ele>
        <time>2021-10-10T19:06:37+02:00</time>
      </trkpt>
      <trkpt lat="42.80726" lon="1.42024">
        <ele>1471</ele>
        <time>2021-10-10T19:06:42+02:00</time>
      </trkpt>
      <trkpt lat="42.80717" lon="1.41999">
        <ele>1473</ele>
        <time>2021-10-10T19:06:47+02:00</time>
      </trkpt>
      <trkpt lat="42.80723" lon="1.41947">
        <ele>1479</ele>
        <time>2021-10-10T19:06:52+02:00</time>
      </trkpt>
      <trkpt lat="42.80691" lon="1.41806">
        <ele>1470</ele>
        <time>2021-10-10T19:06:57+02:00</time>
      </trkpt>
      <trkpt lat="42.80657" lon="1.41681">
        <ele>1468</ele>
        <time>2021-10-10T19:07:02+02:00</time>
      </trkpt>
      <trkpt lat="42.80609" lon="1.41617">
        <ele>1463</ele>
        <time>2021-10-10T19:07:07+02:00</time>
      </trkpt>
      <trkpt lat="42.80578" lon="1.416">
        <ele>1457</ele>
        <time>2021-10-10T19:07:12+02:00</time>
      </trkpt>
      <trkpt lat="42.8055" lon="1.41604">
        <ele>1452</ele>
        <time>2021-10-10T19:07:17+02:00</time>
      </trkpt>
      <trkpt lat="42.80543" lon="1.41621">
        <ele>1449</ele>
        <time>2021-10-10T19:07:22+02:00</time>
      </trkpt>
      <trkpt lat="42.80553" lon="1.41642">
        <ele>1448</ele>
        <time>2021-10-10T19:07:27+02:00</time>
      </trkpt>
      <trkpt lat="42.80572" lon="1.41651">
        <ele>1449</ele>
        <time>2021-10-10T19:07:32+02:00</time>
      </trkpt>
      <trkpt lat="42.80591" lon="1.41672">
        <ele>1449</ele>
        <time>2021-10-10T19:07:37+02:00</time>
      </trkpt>
      <trkpt lat="42.80597" lon="1.41728">
        <ele>1444</ele>
        <time>2021-10-10T19:07:42+02:00</time>
      </trkpt>
      <trkpt lat="42.80591" lon="1.41934">
        <ele>1425</ele>
        <time>2021-10-10T19:07:47+02:00</time>
      </trkpt>
      <trkpt lat="42.80619" lon="1.41986">
        <ele>1430</ele>
        <time>2021-10-10T19:07:52+02:00</time>
      </trkpt>
      <trkpt lat="42.80619" lon="1.42033">
        <ele>1422</ele>
        <time>2021-10-10T19:07:57+02:00</time>
      </trkpt>
      <trkpt lat="42.80657" lon="1.42063">
        <ele>1431</ele>
        <time>2021-10-10T19:08:02+02:00</time>
      </trkpt>
      <trkpt lat="42.80663" lon="1.4211">
        <ele>1420</ele>
        <time>2021-10-10T19:08:07+02:00</time>
      </trkpt>
      <trkpt lat="42.80682" lon="1.4217">
        <ele>1408</ele>
        <time>2021-10-10T19:08:12+02:00</time>
      </trkpt>
      <trkpt lat="42.80707" lon="1.42213">
        <ele>1412</ele>
        <time>2021-10-10T19:08:17+02:00</time>
      </trkpt>
      <trkpt lat="42.80726" lon="1.42316">
        <ele>1401</ele>
        <time>2021-10-10T19:08:22+02:00</time>
      </trkpt>
      <trkpt lat="42.80808" lon="1.42458">
        <ele>1405</ele>
        <time>2021-10-10T19:08:27+02:00</time>
      </trkpt>
      <trkpt lat="42.80798" lon="1.42539">
        <ele>1397</ele>
        <time>2021-10-10T19:08:32+02:00</time>
      </trkpt>
      <trkpt lat="42.80798" lon="1.42582">
        <ele>1399</ele>
        <time>2021-10-10T19:08:37+02:00</time>
      </trkpt>
      <trkpt lat="42.80786" lon="1.42647">
        <ele>1398</ele>
        <time>2021-10-10T19:08:42+02:00</time>
      </trkpt>
      <trkpt lat="42.80783" lon="1.4272">
        <ele>1400</ele>
        <time>2021-10-10T19:08:47+02:00</time>
      </trkpt>
      <trkpt lat="42.80786" lon="1.42767">
        <ele>1398</ele>
        <time>2021-10-10T19:08:52+02:00</time>
      </trkpt>
      <trkpt lat="42.80811" lon="1.42801">
        <ele>1400</ele>
        <time>2021-10-10T19:08:57+02:00</time>
      </trkpt>
      <trkpt lat="42.80849" lon="1.4281">
        <ele>1408</ele>
        <time>2021-10-10T19:09:02+02:00</time>
      </trkpt>
      <trkpt lat="42.80896" lon="1.42814">
        <ele>1410</ele>
        <time>2021-10-10T19:09:07+02:00</time>
      </trkpt>
      <trkpt lat="42.80953" lon="1.42788">
        <ele>1422</ele>
        <time>2021-10-10T19:09:12+02:00</time>
      </trkpt>
      <trkpt lat="42.80975" lon="1.4278">
        <ele>1426</ele>
        <time>2021-10-10T19:09:17+02:00</time>
      </trkpt>
      <trkpt lat="42.80997" lon="1.42784">
        <ele>1425</ele>
        <time>2021-10-10T19:09:22+02:00</time>
      </trkpt>
      <trkpt lat="42.81019" lon="1.4281">
        <ele>1421</ele>
        <time>2021-10-10T19:09:27+02:00</time>
      </trkpt>
      <trkpt lat="42.81047" lon="1.42835">
        <ele>1422</ele>
        <time>2021-10-10T19:09:32+02:00</time>
      </trkpt>
      <trkpt lat="42.81063" lon="1.4287">
        <ele>1421</ele>
        <time>2021-10-10T19:09:37+02:00</time>
      </trkpt>
      <trkpt lat="42.81063" lon="1.42904">
        <ele>1416</ele>
        <time>2021-10-10T19:09:42+02:00</time>
      </trkpt>
      <trkpt lat="42.81085" lon="1.42977">
        <ele>1420</ele>
        <time>2021-10-10T19:09:47+02:00</time>
      </trkpt>
      <trkpt lat="42.81101" lon="1.43029">
        <ele>1424</ele>
        <time>2021-10-10T19:09:52+02:00</time>
      </trkpt>
      <trkpt lat="42.81101" lon="1.43063">
        <ele>1421</ele>
        <time>2021-10-10T19:09:57+02:00</time>
      </trkpt>
      <trkpt lat="42.8111" lon="1.43157">
        <ele>1416</ele>
        <time>2021-10-10T19:10:02+02:00</time>
      </trkpt>
      <trkpt lat="42.81129" lon="1.43217">
        <ele>1421</ele>
        <time>2021-10-10T19:10:07+02:00</time>
      </trkpt>
      <trkpt lat="42.81157" lon="1.43278">
        <ele>1426</ele>
        <time>2021-10-10T19:10:12+02:00</time>
      </trkpt>
      <trkpt lat="42.81167" lon="1.43303">
        <ele>1426</ele>
        <time>2021-10-10T19:10:17+02:00</time>
      </trkpt>
      <trkpt lat="42.81167" lon="1.43316">
        <ele>1425</ele>
        <time>2021-10-10T19:10:22+02:00</time>
      </trkpt>
      <trkpt lat="42.81164" lon="1.43342">
        <ele>1423</ele>
        <time>2021-10-10T19:10:27+02:00</time>
      </trkpt>
      <trkpt lat="42.81164" lon="1.43355">
        <ele>1424</ele>
        <time>2021-10-10T19:10:32+02:00</time>
      </trkpt>
      <trkpt lat="42.81195" lon="1.43402">
        <ele>1434</ele>
        <time>2021-10-10T19:10:37+02:00</time>
      </trkpt>
      <trkpt lat="42.81208" lon="1.43432">
        <ele>1440</ele>
        <time>2021-10-10T19:10:42+02:00</time>
      </trkpt>
      <trkpt lat="42.81239" lon="1.43432">
        <ele>1446</ele>
        <time>2021-10-10T19:10:47+02:00</time>
      </trkpt>
      <trkpt lat="42.81233" lon="1.43479">
        <ele>1452</ele>
        <time>2021-10-10T19:10:52+02:00</time>
      </trkpt>
      <trkpt lat="42.81233" lon="1.43514">
        <ele>1460</ele>
        <time>2021-10-10T19:10:57+02:00</time>
      </trkpt>
      <trkpt lat="42.81201" lon="1.43561">
        <ele>1469</ele>
        <time>2021-10-10T19:11:02+02:00</time>
      </trkpt>
      <trkpt lat="42.8122" lon="1.43595">
        <ele>1484</ele>
        <time>2021-10-10T19:11:07+02:00</time>
      </trkpt>
      <trkpt lat="42.81208" lon="1.43638">
        <ele>1499</ele>
        <time>2021-10-10T19:11:12+02:00</time>
      </trkpt>
      <trkpt lat="42.8123" lon="1.43664">
        <ele>1514</ele>
        <time>2021-10-10T19:11:17+02:00</time>
      </trkpt>
      <trkpt lat="42.8123" lon="1.43681">
        <ele>1522</ele>
        <time>2021-10-10T19:11:22+02:00</time>
      </trkpt>
      <trkpt lat="42.81242" lon="1.43702">
        <ele>1535</ele>
        <time>2021-10-10T19:11:27+02:00</time>
      </trkpt>
      <trkpt lat="42.81242" lon="1.43724">
        <ele>1544</ele>
        <time>2021-10-10T19:11:32+02:00</time>
      </trkpt>
      <trkpt lat="42.81286" lon="1.43728">
        <ele>1557</ele>
        <time>2021-10-10T19:11:37+02:00</time>
      </trkpt>
      <trkpt lat="42.8129" lon="1.43767">
        <ele>1578</ele>
        <time>2021-10-10T19:11:42+02:00</time>
      </trkpt>
      <trkpt lat="42.81343" lon="1.4381">
        <ele>1617</ele>
        <time>2021-10-10T19:11:47+02:00</time>
      </trkpt>
      <trkpt lat="42.81441" lon="1.43767">
        <ele>1629</ele>
        <time>2021-10-10T19:11:52+02:00</time>
      </trkpt>
      <trkpt lat="42.81504" lon="1.43775">
        <ele>1652</ele>
        <time>2021-10-10T19:11:57+02:00</time>
      </trkpt>
      <trkpt lat="42.81516" lon="1.43767">
        <ele>1653</ele>
        <time>2021-10-10T19:12:02+02:00</time>
      </trkpt>
      <trkpt lat="42.81545" lon="1.43788">
        <ele>1668</ele>
        <time>2021-10-10T19:12:07+02:00</time>
      </trkpt>
      <trkpt lat="42.81595" lon="1.43767">
        <ele>1677</ele>
        <time>2021-10-10T19:12:12+02:00</time>
      </trkpt>
      <trkpt lat="42.81642" lon="1.43801">
        <ele>1697</ele>
        <time>2021-10-10T19:12:17+02:00</time>
      </trkpt>
      <trkpt lat="42.81667" lon="1.43805">
        <ele>1705</ele>
        <time>2021-10-10T19:12:22+02:00</time>
      </trkpt>
      <trkpt lat="42.81696" lon="1.43792">
        <ele>1702</ele>
        <time>2021-10-10T19:12:27+02:00</time>
      </trkpt>
      <trkpt lat="42.81752" lon="1.43831">
        <ele>1711</ele>
        <time>2021-10-10T19:12:32+02:00</time>
      </trkpt>
      <trkpt lat="42.81796" lon="1.4381">
        <ele>1710</ele>
        <time>2021-10-10T19:12:37+02:00</time>
      </trkpt>
      <trkpt lat="42.81844" lon="1.43818">
        <ele>1719</ele>
        <time>2021-10-10T19:12:42+02:00</time>
      </trkpt>
      <trkpt lat="42.81888" lon="1.43805">
        <ele>1724</ele>
        <time>2021-10-10T19:12:47+02:00</time>
      </trkpt>
      <trkpt lat="42.81954" lon="1.43711">
        <ele>1730</ele>
        <time>2021-10-10T19:12:52+02:00</time>
      </trkpt>
      <trkpt lat="42.81995" lon="1.43698">
        <ele>1735</ele>
        <time>2021-10-10T19:12:57+02:00</time>
      </trkpt>
      <trkpt lat="42.82042" lon="1.43677">
        <ele>1740</ele>
        <time>2021-10-10T19:13:02+02:00</time>
      </trkpt>
      <trkpt lat="42.82108" lon="1.43582">
        <ele>1746</ele>
        <time>2021-10-10T19:13:07+02:00</time>
      </trkpt>
      <trkpt lat="42.82127" lon="1.43565">
        <ele>1750</ele>
        <time>2021-10-10T19:13:12+02:00</time>
      </trkpt>
      <trkpt lat="42.82165" lon="1.43565">
        <ele>1751</ele>
        <time>2021-10-10T19:13:17+02:00</time>
      </trkpt>
      <trkpt lat="42.8219" lon="1.43552">
        <ele>1761</ele>
        <time>2021-10-10T19:13:22+02:00</time>
      </trkpt>
      <trkpt lat="42.82224" lon="1.43561">
        <ele>1765</ele>
        <time>2021-10-10T19:13:27+02:00</time>
      </trkpt>
      <trkpt lat="42.82275" lon="1.43526">
        <ele>1797</ele>
        <time>2021-10-10T19:13:32+02:00</time>
      </trkpt>
      <trkpt lat="42.82303" lon="1.43526">
        <ele>1812</ele>
        <time>2021-10-10T19:13:37+02:00</time>
      </trkpt>
      <trkpt lat="42.82331" lon="1.43509">
        <ele>1834</ele>
        <time>2021-10-10T19:13:42+02:00</time>
      </trkpt>
      <trkpt lat="42.82347" lon="1.43518">
        <ele>1839</ele>
        <time>2021-10-10T19:13:47+02:00</time>
      </trkpt>
      <trkpt lat="42.82372" lon="1.43483">
        <ele>1862</ele>
        <time>2021-10-10T19:13:52+02:00</time>
      </trkpt>
      <trkpt lat="42.82426" lon="1.43488">
        <ele>1889</ele>
        <time>2021-10-10T19:13:57+02:00</time>
      </trkpt>
      <trkpt lat="42.82451" lon="1.43483">
        <ele>1903</ele>
        <time>2021-10-10T19:14:02+02:00</time>
      </trkpt>
      <trkpt lat="42.82483" lon="1.43492">
        <ele>1921</ele>
        <time>2021-10-10T19:14:07+02:00</time>
      </trkpt>
      <trkpt lat="42.82511" lon="1.43522">
        <ele>1930</ele>
        <time>2021-10-10T19:14:12+02:00</time>
      </trkpt>
      <trkpt lat="42.8253" lon="1.43531">
        <ele>1932</ele>
        <time>2021-10-10T19:14:17+02:00</time>
      </trkpt>
      <trkpt lat="42.82561" lon="1.43501">
        <ele>1944</ele>
        <time>2021-10-10T19:14:22+02:00</time>
      </trkpt>
      <trkpt lat="42.8258" lon="1.43514">
        <ele>1946</ele>
        <time>2021-10-10T19:14:27+02:00</time>
      </trkpt>
      <trkpt lat="42.82615" lon="1.43556">
        <ele>1952</ele>
        <time>2021-10-10T19:14:32+02:00</time>
      </trkpt>
      <trkpt lat="42.82659" lon="1.43531">
        <ele>1970</ele>
        <time>2021-10-10T19:14:37+02:00</time>
      </trkpt>
      <trkpt lat="42.82675" lon="1.43548">
        <ele>1976</ele>
        <time>2021-10-10T19:14:42+02:00</time>
      </trkpt>
      <trkpt lat="42.8269" lon="1.43544">
        <ele>1982</ele>
        <time>2021-10-10T19:14:47+02:00</time>
      </trkpt>
      <trkpt lat="42.827" lon="1.43518">
        <ele>1983</ele>
        <time>2021-10-10T19:14:52+02:00</time>
      </trkpt>
      <trkpt lat="42.82753" lon="1.43518">
        <ele>2001</ele>
        <time>2021-10-10T19:14:57+02:00</time>
      </trkpt>
      <trkpt lat="42.82797" lon="1.43488">
        <ele>2010</ele>
        <time>2021-10-10T19:15:02+02:00</time>
      </trkpt>
      <trkpt lat="42.82863" lon="1.43535">
        <ele>2044</ele>
        <time>2021-10-10T19:15:07+02:00</time>
      </trkpt>
      <trkpt lat="42.82904" lon="1.43488">
        <ele>2050</ele>
        <time>2021-10-10T19:15:12+02:00</time>
      </trkpt>
      <trkpt lat="42.82936" lon="1.43505">
        <ele>2063</ele>
        <time>2021-10-10T19:15:17+02:00</time>
      </trkpt>
      <trkpt lat="42.82952" lon="1.43539">
        <ele>2072</ele>
        <time>2021-10-10T19:15:22+02:00</time>
      </trkpt>
      <trkpt lat="42.82952" lon="1.43539">
        <ele>2072</ele>
        <time>2021-10-10T19:15:27+02:00</time>
      </trkpt>
      <trkpt lat="42.82939" lon="1.43629">
        <ele>2091</ele>
        <time>2021-10-10T19:15:32+02:00</time>
      </trkpt>
      <trkpt lat="42.82933" lon="1.43694">
        <ele>2108</ele>
        <time>2021-10-10T19:15:37+02:00</time>
      </trkpt>
      <trkpt lat="42.82952" lon="1.43741">
        <ele>2124</ele>
        <time>2021-10-10T19:15:42+02:00</time>
      </trkpt>
      <trkpt lat="42.82974" lon="1.43758">
        <ele>2133</ele>
        <time>2021-10-10T19:15:47+02:00</time>
      </trkpt>
      <trkpt lat="42.82992" lon="1.4384">
        <ele>2157</ele>
        <time>2021-10-10T19:15:52+02:00</time>
      </trkpt>
      <trkpt lat="42.83021" lon="1.4387">
        <ele>2155</ele>
        <time>2021-10-10T19:15:57+02:00</time>
      </trkpt>
      <trkpt lat="42.8303" lon="1.43947">
        <ele>2166</ele>
        <time>2021-10-10T19:16:02+02:00</time>
      </trkpt>
      <trkpt lat="42.83043" lon="1.43986">
        <ele>2167</ele>
        <time>2021-10-10T19:16:07+02:00</time>
      </trkpt>
      <trkpt lat="42.83055" lon="1.44016">
        <ele>2167</ele>
        <time>2021-10-10T19:16:12+02:00</time>
      </trkpt>
      <trkpt lat="42.83024" lon="1.43934">
        <ele>2167</ele>
        <time>2021-10-10T19:16:17+02:00</time>
      </trkpt>
      <trkpt lat="42.83024" lon="1.43865">
        <ele>2153</ele>
        <time>2021-10-10T19:16:22+02:00</time>
      </trkpt>
      <trkpt lat="42.82989" lon="1.4384">
        <ele>2156</ele>
        <time>2021-10-10T19:16:27+02:00</time>
      </trkpt>
      <trkpt lat="42.82974" lon="1.43758">
        <ele>2133</ele>
        <time>2021-10-10T19:16:32+02:00</time>
      </trkpt>
      <trkpt lat="42.82958" lon="1.43745">
        <ele>2126</ele>
        <time>2021-10-10T19:16:37+02:00</time>
      </trkpt>
      <trkpt lat="42.82933" lon="1.43698">
        <ele>2109</ele>
        <time>2021-10-10T19:16:42+02:00</time>
      </trkpt>
      <trkpt lat="42.82952" lon="1.43539">
        <ele>2072</ele>
        <time>2021-10-10T19:16:47+02:00</time>
      </trkpt>
      <trkpt lat="42.82942" lon="1.43432">
        <ele>2058</ele>
        <time>2021-10-10T19:16:52+02:00</time>
      </trkpt>
      <trkpt lat="42.82936" lon="1.43398">
        <ele>2056</ele>
        <time>2021-10-10T19:16:57+02:00</time>
      </trkpt>
      <trkpt lat="42.82904" lon="1.43325">
        <ele>2049</ele>
        <time>2021-10-10T19:17:02+02:00</time>
      </trkpt>
      <trkpt lat="42.82885" lon="1.43265">
        <ele>2041</ele>
        <time>2021-10-10T19:17:07+02:00</time>
      </trkpt>
      <trkpt lat="42.82898" lon="1.43187">
        <ele>2041</ele>
        <time>2021-10-10T19:17:12+02:00</time>
      </trkpt>
      <trkpt lat="42.8287" lon="1.43093">
        <ele>2018</ele>
        <time>2021-10-10T19:17:17+02:00</time>
      </trkpt>
      <trkpt lat="42.82845" lon="1.4302">
        <ele>2011</ele>
        <time>2021-10-10T19:17:22+02:00</time>
      </trkpt>
      <trkpt lat="42.82826" lon="1.42973">
        <ele>2006</ele>
        <time>2021-10-10T19:17:27+02:00</time>
      </trkpt>
      <trkpt lat="42.82772" lon="1.42921">
        <ele>2009</ele>
        <time>2021-10-10T19:17:32+02:00</time>
      </trkpt>
      <trkpt lat="42.82703" lon="1.42797">
        <ele>2011</ele>
        <time>2021-10-10T19:17:37+02:00</time>
      </trkpt>
      <trkpt lat="42.8269" lon="1.4269">
        <ele>2019</ele>
        <time>2021-10-10T19:17:42+02:00</time>
      </trkpt>
      <trkpt lat="42.82675" lon="1.42634">
        <ele>2022</ele>
        <time>2021-10-10T19:17:47+02:00</time>
      </trkpt>
      <trkpt lat="42.82634" lon="1.42574">
        <ele>2019</ele>
        <time>2021-10-10T19:17:52+02:00</time>
      </trkpt>
      <trkpt lat="42.82605" lon="1.42505">
        <ele>2013</ele>
        <time>2021-10-10T19:17:57+02:00</time>
      </trkpt>
      <trkpt lat="42.8258" lon="1.42449">
        <ele>2017</ele>
        <time>2021-10-10T19:18:02+02:00</time>
      </trkpt>
      <trkpt lat="42.82577" lon="1.42398">
        <ele>2015</ele>
        <time>2021-10-10T19:18:07+02:00</time>
      </trkpt>
      <trkpt lat="42.82558" lon="1.42338">
        <ele>2002</ele>
        <time>2021-10-10T19:18:12+02:00</time>
      </trkpt>
      <trkpt lat="42.82539" lon="1.42286">
        <ele>1993</ele>
        <time>2021-10-10T19:18:17+02:00</time>
      </trkpt>
      <trkpt lat="42.82505" lon="1.42136">
        <ele>1990</ele>
        <time>2021-10-10T19:18:22+02:00</time>
      </trkpt>
      <trkpt lat="42.82489" lon="1.42093">
        <ele>1986</ele>
        <time>2021-10-10T19:18:27+02:00</time>
      </trkpt>
      <trkpt lat="42.82429" lon="1.42029">
        <ele>1970</ele>
        <time>2021-10-10T19:18:32+02:00</time>
      </trkpt>
      <trkpt lat="42.82385" lon="1.41977">
        <ele>1960</ele>
        <time>2021-10-10T19:18:37+02:00</time>
      </trkpt>
      <trkpt lat="42.82341" lon="1.41956">
        <ele>1954</ele>
        <time>2021-10-10T19:18:42+02:00</time>
      </trkpt>
      <trkpt lat="42.82278" lon="1.41934">
        <ele>1951</ele>
        <time>2021-10-10T19:18:47+02:00</time>
      </trkpt>
      <trkpt lat="42.82228" lon="1.41904">
        <ele>1957</ele>
        <time>2021-10-10T19:18:52+02:00</time>
      </trkpt>
      <trkpt lat="42.82184" lon="1.41874">
        <ele>1965</ele>
        <time>2021-10-10T19:18:57+02:00</time>
      </trkpt>
      <trkpt lat="42.82139" lon="1.41823">
        <ele>1973</ele>
        <time>2021-10-10T19:19:02+02:00</time>
      </trkpt>
      <trkpt lat="42.82095" lon="1.41788">
        <ele>1974</ele>
        <time>2021-10-10T19:19:07+02:00</time>
      </trkpt>
      <trkpt lat="42.82086" lon="1.41754">
        <ele>1984</ele>
        <time>2021-10-10T19:19:12+02:00</time>
      </trkpt>
      <trkpt lat="42.82007" lon="1.4169">
        <ele>1959</ele>
        <time>2021-10-10T19:19:17+02:00</time>
      </trkpt>
      <trkpt lat="42.81998" lon="1.41655">
        <ele>1959</ele>
        <time>2021-10-10T19:19:22+02:00</time>
      </trkpt>
      <trkpt lat="42.81944" lon="1.41582">
        <ele>1938</ele>
        <time>2021-10-10T19:19:27+02:00</time>
      </trkpt>
      <trkpt lat="42.81916" lon="1.41578">
        <ele>1938</ele>
        <time>2021-10-10T19:19:32+02:00</time>
      </trkpt>
      <trkpt lat="42.81888" lon="1.41544">
        <ele>1932</ele>
        <time>2021-10-10T19:19:37+02:00</time>
      </trkpt>
      <trkpt lat="42.81853" lon="1.41539">
        <ele>1934</ele>
        <time>2021-10-10T19:19:42+02:00</time>
      </trkpt>
      <trkpt lat="42.81803" lon="1.41505">
        <ele>1940</ele>
        <time>2021-10-10T19:19:47+02:00</time>
      </trkpt>
      <trkpt lat="42.81787" lon="1.41505">
        <ele>1940</ele>
        <time>2021-10-10T19:19:52+02:00</time>
      </trkpt>
      <trkpt lat="42.81749" lon="1.41522">
        <ele>1935</ele>
        <time>2021-10-10T19:19:57+02:00</time>
      </trkpt>
      <trkpt lat="42.81718" lon="1.41522">
        <ele>1930</ele>
        <time>2021-10-10T19:20:02+02:00</time>
      </trkpt>
      <trkpt lat="42.81652" lon="1.41591">
        <ele>1924</ele>
        <time>2021-10-10T19:20:07+02:00</time>
      </trkpt>
      <trkpt lat="42.81595" lon="1.41617">
        <ele>1906</ele>
        <time>2021-10-10T19:20:12+02:00</time>
      </trkpt>
      <trkpt lat="42.81563" lon="1.41569">
        <ele>1890</ele>
        <time>2021-10-10T19:20:17+02:00</time>
      </trkpt>
      <trkpt lat="42.81526" lon="1.41565">
        <ele>1870</ele>
        <time>2021-10-10T19:20:22+02:00</time>
      </trkpt>
      <trkpt lat="42.81441" lon="1.41454">
        <ele>1814</ele>
        <time>2021-10-10T19:20:27+02:00</time>
      </trkpt>
      <trkpt lat="42.8139" lon="1.41411">
        <ele>1791</ele>
        <time>2021-10-10T19:20:32+02:00</time>
      </trkpt>
      <trkpt lat="42.81356" lon="1.41394">
        <ele>1775</ele>
        <time>2021-10-10T19:20:37+02:00</time>
      </trkpt>
      <trkpt lat="42.81305" lon="1.41372">
        <ele>1752</ele>
        <time>2021-10-10T19:20:42+02:00</time>
      </trkpt>
      <trkpt lat="42.81249" lon="1.41355">
        <ele>1729</ele>
        <time>2021-10-10T19:20:47+02:00</time>
      </trkpt>
      <trkpt lat="42.8116" lon="1.41363">
        <ele>1694</ele>
        <time>2021-10-10T19:20:52+02:00</time>
      </trkpt>
      <trkpt lat="42.8112" lon="1.41363">
        <ele>1678</ele>
        <time>2021-10-10T19:20:57+02:00</time>
      </trkpt>
      <trkpt lat="42.8111" lon="1.41376">
        <ele>1674</ele>
        <time>2021-10-10T19:21:02+02:00</time>
      </trkpt>
      <trkpt lat="42.81041" lon="1.41381">
        <ele>1652</ele>
        <time>2021-10-10T19:21:07+02:00</time>
      </trkpt>
      <trkpt lat="42.80984" lon="1.41329">
        <ele>1634</ele>
        <time>2021-10-10T19:21:12+02:00</time>
      </trkpt>
      <trkpt lat="42.80909" lon="1.41222">
        <ele>1602</ele>
        <time>2021-10-10T19:21:17+02:00</time>
      </trkpt>
      <trkpt lat="42.80833" lon="1.41196">
        <ele>1575</ele>
        <time>2021-10-10T19:21:22+02:00</time>
      </trkpt>
      <trkpt lat="42.80764" lon="1.41188">
        <ele>1547</ele>
        <time>2021-10-10T19:21:27+02:00</time>
      </trkpt>
      <trkpt lat="42.80698" lon="1.41175">
        <ele>1527</ele>
        <time>2021-10-10T19:21:32+02:00</time>
      </trkpt>
      <trkpt lat="42.80647" lon="1.41149">
        <ele>1518</ele>
        <time>2021-10-10T19:21:37+02:00</time>
      </trkpt>
    </trkseg>
  </trk>
</gpx>